createdAt,value
2018-12-20T00:00:46.840Z,24.93
2018-12-20T00:03:14.366Z,24.07
2018-12-20T00:05:41.976Z,22.67
2018-12-20T00:08:09.441Z,24.27
2018-12-20T00:10:37.028Z,22.40
2018-12-20T00:15:40.751Z,24.63
2018-12-20T00:18:08.312Z,23.17
2018-12-20T00:20:35.948Z,23.93
2018-12-20T00:23:03.390Z,21.87
2018-12-20T00:25:30.925Z,25.33
2018-12-20T00:27:58.615Z,24.90
2018-12-20T00:30:26.063Z,24.17
2018-12-20T00:32:53.585Z,24.23
2018-12-20T00:35:21.243Z,26.07
2018-12-20T00:37:48.860Z,25.73
2018-12-20T00:40:16.394Z,24.47
2018-12-20T00:42:44.068Z,24.30
2018-12-20T00:45:11.658Z,24.43
2018-12-20T00:47:39.165Z,24.13
2018-12-20T00:50:06.709Z,23.50
2018-12-20T00:52:34.405Z,26.50
2018-12-20T00:55:02.260Z,23.73
2018-12-20T00:57:29.869Z,23.03
2018-12-20T00:59:57.607Z,23.03
2018-12-20T01:02:25.106Z,25.00
2018-12-20T01:04:52.708Z,24.90
2018-12-20T01:07:20.161Z,24.33
2018-12-20T01:09:47.593Z,26.30
2018-12-20T01:12:15.174Z,28.27
2018-12-20T01:14:45.468Z,24.63
2018-12-20T01:17:12.021Z,26.53
2018-12-20T01:19:39.716Z,25.73
2018-12-20T01:22:07.190Z,27.80
2018-12-20T01:24:34.776Z,25.57
2018-12-20T01:27:02.484Z,24.20
2018-12-20T01:29:30.030Z,23.20
2018-12-20T01:31:57.496Z,25.20
2018-12-20T01:34:25.000Z,24.27
2018-12-20T01:36:52.405Z,25.30
2018-12-20T01:39:20.042Z,23.80
2018-12-20T01:41:47.563Z,23.77
2018-12-20T01:44:15.435Z,24.17
2018-12-20T01:46:42.904Z,25.13
2018-12-20T01:49:10.635Z,24.67
2018-12-20T01:51:38.211Z,24.33
2018-12-20T01:54:05.698Z,24.63
2018-12-20T01:56:33.292Z,24.37
2018-12-20T01:59:00.707Z,25.50
2018-12-20T02:01:28.202Z,27.03
2018-12-20T02:03:55.727Z,26.17
2018-12-20T02:06:23.233Z,24.17
2018-12-20T02:08:50.746Z,23.87
2018-12-20T02:11:18.461Z,28.97
2018-12-20T02:13:46.213Z,24.67
2018-12-20T02:16:13.821Z,25.27
2018-12-20T02:18:41.508Z,28.23
2018-12-20T02:21:08.994Z,29.30
2018-12-20T02:23:36.642Z,26.67
2018-12-20T02:26:04.345Z,25.33
2018-12-20T02:28:31.947Z,28.40
2018-12-20T02:30:59.441Z,26.50
2018-12-20T02:33:26.904Z,26.43
2018-12-20T02:35:54.395Z,27.93
2018-12-20T02:38:22.001Z,26.00
2018-12-20T02:40:49.599Z,28.17
2018-12-20T02:43:17.103Z,26.00
2018-12-20T02:45:44.541Z,26.63
2018-12-20T02:48:12.115Z,28.37
2018-12-20T02:50:39.810Z,29.40
2018-12-20T02:53:07.375Z,27.93
2018-12-20T02:55:34.903Z,28.50
2018-12-20T02:58:02.467Z,28.47
2018-12-20T03:00:29.914Z,26.87
2018-12-20T03:02:57.709Z,28.83
2018-12-20T03:05:25.321Z,28.77
2018-12-20T03:07:52.801Z,27.70
2018-12-20T03:10:20.780Z,29.00
2018-12-20T03:12:48.638Z,26.33
2018-12-20T03:15:20.134Z,26.67
2018-12-20T03:17:45.776Z,27.47
2018-12-20T03:20:13.532Z,28.87
2018-12-20T03:22:41.233Z,28.90
2018-12-20T03:25:08.893Z,28.53
2018-12-20T03:27:36.409Z,27.30
2018-12-20T03:30:05.088Z,27.47
2018-12-20T03:32:33.041Z,27.63
2018-12-20T03:35:00.545Z,28.67
2018-12-20T03:37:28.110Z,31.17
2018-12-20T03:39:56.857Z,27.03
2018-12-20T03:42:24.623Z,28.93
2018-12-20T03:44:52.115Z,27.33
2018-12-20T03:47:19.984Z,27.47
2018-12-20T03:49:47.514Z,27.53
2018-12-20T03:52:15.000Z,28.43
2018-12-20T03:54:42.690Z,27.53
2018-12-20T03:57:10.240Z,29.13
2018-12-20T03:59:38.013Z,32.70
2018-12-20T04:02:05.545Z,29.57
2018-12-20T04:04:33.278Z,27.33
2018-12-20T04:07:01.187Z,37.53
2018-12-20T04:09:28.978Z,30.43
2018-12-20T04:11:56.789Z,33.60
2018-12-20T04:14:24.405Z,29.20
2018-12-20T04:16:52.114Z,27.83
2018-12-20T04:19:20.085Z,29.30
2018-12-20T04:21:47.774Z,28.90
2018-12-20T04:24:15.490Z,28.97
2018-12-20T04:26:42.916Z,28.37
2018-12-20T04:29:10.606Z,28.83
2018-12-20T04:31:38.276Z,27.40
2018-12-20T04:34:05.921Z,28.83
2018-12-20T04:36:34.031Z,28.13
2018-12-20T04:39:01.552Z,26.97
2018-12-20T04:41:29.007Z,28.20
2018-12-20T04:43:56.726Z,27.50
2018-12-20T04:46:24.605Z,26.20
2018-12-20T04:48:52.133Z,27.93
2018-12-20T04:51:20.295Z,26.70
2018-12-20T04:53:47.949Z,27.43
2018-12-20T04:56:15.513Z,28.03
2018-12-20T04:58:43.131Z,27.10
2018-12-20T05:01:10.928Z,27.40
2018-12-20T05:03:38.511Z,26.87
2018-12-20T05:06:06.020Z,26.00
2018-12-20T05:08:33.474Z,27.93
2018-12-20T05:11:01.229Z,26.20
2018-12-20T05:13:28.919Z,27.53
2018-12-20T05:15:56.887Z,26.27
2018-12-20T05:18:24.664Z,26.83
2018-12-20T05:20:52.185Z,25.50
2018-12-20T05:23:19.784Z,24.90
2018-12-20T05:25:47.484Z,25.90
2018-12-20T05:28:15.142Z,27.03
2018-12-20T05:30:42.634Z,27.37
2018-12-20T05:33:10.136Z,25.63
2018-12-20T05:35:37.604Z,25.77
2018-12-20T05:38:05.097Z,25.93
2018-12-20T05:40:32.505Z,24.97
2018-12-20T05:43:00.102Z,24.40
2018-12-20T05:45:27.835Z,25.17
2018-12-20T05:47:55.756Z,25.93
2018-12-20T05:50:23.283Z,25.17
2018-12-20T05:52:51.164Z,24.80
2018-12-20T05:55:18.656Z,25.67
2018-12-20T05:57:46.456Z,24.63
2018-12-20T06:00:14.489Z,25.50
2018-12-20T06:02:41.996Z,24.87
2018-12-20T06:05:09.730Z,23.67
2018-12-20T06:07:37.383Z,25.30
2018-12-20T06:10:04.972Z,25.13
2018-12-20T06:12:32.670Z,25.57
2018-12-20T06:15:00.203Z,26.20
2018-12-20T06:17:27.666Z,24.17
2018-12-20T06:19:55.174Z,24.20
2018-12-20T06:22:23.137Z,25.47
2018-12-20T06:24:50.669Z,25.07
2018-12-20T06:27:18.084Z,24.37
2018-12-20T06:29:45.617Z,25.20
2018-12-20T06:32:13.057Z,22.70
2018-12-20T06:34:40.596Z,24.33
2018-12-20T06:37:08.079Z,23.83
2018-12-20T06:39:35.532Z,25.30
2018-12-20T06:42:02.965Z,25.73
2018-12-20T06:44:30.483Z,23.50
2018-12-20T06:46:57.957Z,23.13
2018-12-20T06:49:25.364Z,24.37
2018-12-20T06:51:52.862Z,24.03
2018-12-20T06:54:20.334Z,23.40
2018-12-20T06:56:47.766Z,21.20
2018-12-20T06:59:15.267Z,21.63
2018-12-20T07:01:42.709Z,22.73
2018-12-20T07:04:10.150Z,21.73
2018-12-20T07:06:37.714Z,22.27
2018-12-20T07:09:07.053Z,22.47
2018-12-20T07:11:34.556Z,23.43
2018-12-20T07:14:02.014Z,22.90
2018-12-20T07:16:29.671Z,23.87
2018-12-20T07:18:57.168Z,23.30
2018-12-20T07:21:24.637Z,22.17
2018-12-20T07:23:52.099Z,23.17
2018-12-20T07:26:19.542Z,22.40
2018-12-20T07:28:47.772Z,22.40
2018-12-20T07:31:15.280Z,22.10
2018-12-20T07:33:42.696Z,21.37
2018-12-20T07:36:10.181Z,18.73
2018-12-20T07:38:37.668Z,19.30
2018-12-20T07:41:05.203Z,19.43
2018-12-20T07:43:32.663Z,18.83
2018-12-20T07:46:00.376Z,18.60
2018-12-20T07:48:32.085Z,17.90
2018-12-20T07:50:57.340Z,20.30
2018-12-20T07:53:24.829Z,18.43
2018-12-20T07:55:52.245Z,18.27
2018-12-20T07:58:19.707Z,19.47
2018-12-20T08:00:47.132Z,17.60
2018-12-20T08:03:14.600Z,18.37
2018-12-20T08:05:42.170Z,20.80
2018-12-20T08:08:09.921Z,19.67
2018-12-20T08:10:37.372Z,18.50
2018-12-20T08:13:04.857Z,19.47
2018-12-20T08:15:32.487Z,18.27
2018-12-20T08:17:59.956Z,20.03
2018-12-20T08:20:27.422Z,18.17
2018-12-20T08:22:54.881Z,21.17
2018-12-20T08:25:22.372Z,18.43
2018-12-20T08:27:49.876Z,18.30
2018-12-20T08:30:17.292Z,19.17
2018-12-20T08:32:44.744Z,17.57
2018-12-20T08:35:12.959Z,19.03
2018-12-20T08:37:40.397Z,18.27
2018-12-20T08:40:08.445Z,19.53
2018-12-20T08:42:35.930Z,19.43
2018-12-20T08:45:03.689Z,17.37
2018-12-20T08:47:31.140Z,20.03
2018-12-20T08:49:58.600Z,19.00
2018-12-20T08:52:26.016Z,18.93
2018-12-20T08:54:53.503Z,20.27
2018-12-20T08:57:21.006Z,19.97
2018-12-20T08:59:48.486Z,20.80
2018-12-20T09:02:16.367Z,20.23
2018-12-20T09:04:43.820Z,20.30
2018-12-20T09:07:11.296Z,21.07
2018-12-20T09:09:38.768Z,18.83
2018-12-20T09:12:06.256Z,19.23
2018-12-20T09:14:33.661Z,19.23
2018-12-20T09:17:03.109Z,18.77
2018-12-20T09:19:30.671Z,17.37
2018-12-20T09:21:58.136Z,17.10
2018-12-20T09:24:25.567Z,18.00
2018-12-20T09:26:53.043Z,19.00
2018-12-20T09:29:20.671Z,18.23
2018-12-20T09:31:48.129Z,17.93
2018-12-20T09:34:15.624Z,18.23
2018-12-20T09:36:43.095Z,17.87
2018-12-20T09:39:10.555Z,18.37
2018-12-20T09:41:38.072Z,18.77
2018-12-20T09:44:05.485Z,17.60
2018-12-20T09:46:32.974Z,18.67
2018-12-20T09:49:01.225Z,19.73
2018-12-20T09:51:28.718Z,19.80
2018-12-20T09:53:56.200Z,15.67
2018-12-20T09:56:23.733Z,13.67
2018-12-20T09:58:51.221Z,14.37
2018-12-20T10:01:18.680Z,15.80
2018-12-20T10:03:46.158Z,14.10
2018-12-20T10:06:13.670Z,14.00
2018-12-20T10:08:41.095Z,15.17
2018-12-20T10:11:08.682Z,13.37
2018-12-20T10:13:36.112Z,12.77
2018-12-20T10:16:03.752Z,12.70
2018-12-20T10:18:31.807Z,11.67
2018-12-20T10:20:59.270Z,10.80
2018-12-20T10:23:26.692Z,10.57
2018-12-20T10:25:54.183Z,9.40
2018-12-20T10:28:21.680Z,8.97
2018-12-20T10:30:49.215Z,18.03
2018-12-20T10:33:17.683Z,12.00
2018-12-20T10:35:45.368Z,14.03
2018-12-20T10:38:12.946Z,22.57
2018-12-20T10:40:40.439Z,10.10
2018-12-20T10:43:07.896Z,23.13
2018-12-20T10:45:35.362Z,15.17
2018-12-20T10:48:02.940Z,22.27
2018-12-20T10:50:30.575Z,9.57
2018-12-20T10:52:58.053Z,8.00
2018-12-20T10:55:25.521Z,7.73
2018-12-20T10:57:52.984Z,7.90
2018-12-20T11:00:20.482Z,7.40
2018-12-20T11:02:53.768Z,8.07
2018-12-20T11:05:22.392Z,7.67
2018-12-20T11:07:56.143Z,7.93
2018-12-20T11:10:27.483Z,8.47
2018-12-20T11:12:54.931Z,7.47
2018-12-20T11:15:22.474Z,6.00
2018-12-20T11:17:49.945Z,6.80
2018-12-20T11:20:17.456Z,6.27
2018-12-20T11:22:44.934Z,6.90
2018-12-20T11:25:12.438Z,4.90
2018-12-20T11:27:39.902Z,5.20
2018-12-20T11:30:08.519Z,5.83
2018-12-20T11:32:35.957Z,6.10
2018-12-20T11:35:03.853Z,5.43
2018-12-20T11:37:31.691Z,5.40
2018-12-20T11:39:59.739Z,6.00
2018-12-20T11:42:27.432Z,6.50
2018-12-20T11:44:54.922Z,7.07
2018-12-20T11:47:27.815Z,6.97
2018-12-20T11:49:55.305Z,7.53
2018-12-20T11:52:22.822Z,7.73
2018-12-20T11:54:50.259Z,7.83
2018-12-20T11:57:17.719Z,7.60
2018-12-20T11:59:45.256Z,7.37
2018-12-20T12:02:12.786Z,7.77
2018-12-20T12:04:40.285Z,7.87
2018-12-20T12:07:07.757Z,8.10
2018-12-20T12:09:35.218Z,7.67
2018-12-20T12:12:02.992Z,7.53
2018-12-20T12:14:30.799Z,8.80
2018-12-20T12:16:58.247Z,8.07
2018-12-20T12:19:25.712Z,8.93
2018-12-20T12:21:53.164Z,9.13
2018-12-20T12:24:20.621Z,8.20
2018-12-20T12:26:48.207Z,9.00
2018-12-20T12:29:15.682Z,7.93
2018-12-20T12:31:43.093Z,7.80
2018-12-20T12:34:10.604Z,6.60
2018-12-20T12:36:38.052Z,6.17
2018-12-20T12:39:07.170Z,5.63
2018-12-20T12:41:34.709Z,6.37
2018-12-20T12:44:02.279Z,6.40
2018-12-20T12:46:29.764Z,5.70
2018-12-20T12:48:57.208Z,5.63
2018-12-20T12:51:24.701Z,5.93
2018-12-20T12:53:52.196Z,6.00
2018-12-20T12:56:19.662Z,5.40
2018-12-20T12:58:47.103Z,4.73
2018-12-20T13:01:14.662Z,4.73
2018-12-20T13:03:42.152Z,5.93
2018-12-20T13:06:09.571Z,5.40
2018-12-20T13:08:37.105Z,6.10
2018-12-20T13:11:05.342Z,6.67
2018-12-20T13:13:32.761Z,6.10
2018-12-20T13:16:01.207Z,7.30
2018-12-20T13:18:28.717Z,8.83
2018-12-20T13:20:56.143Z,10.17
2018-12-20T13:23:25.642Z,8.70
2018-12-20T13:25:53.139Z,8.17
2018-12-20T13:28:26.045Z,7.80
2018-12-20T13:30:53.735Z,9.27
2018-12-20T13:33:21.302Z,9.63
2018-12-20T13:35:48.807Z,9.57
2018-12-20T13:38:16.287Z,9.43
2018-12-20T13:40:43.784Z,9.13
2018-12-20T13:43:14.892Z,9.37
2018-12-20T13:45:42.343Z,9.40
2018-12-20T13:48:09.924Z,7.93
2018-12-20T13:50:37.459Z,8.47
2018-12-20T13:53:05.120Z,8.00
2018-12-20T13:55:32.546Z,8.03
2018-12-20T13:58:00.096Z,9.10
2018-12-20T14:00:27.579Z,9.70
2018-12-20T14:02:55.083Z,8.67
2018-12-20T14:05:22.513Z,7.70
2018-12-20T14:07:49.972Z,9.30
2018-12-20T14:10:17.458Z,10.23
2018-12-20T14:12:44.889Z,7.67
2018-12-20T14:15:12.428Z,12.63
2018-12-20T14:17:39.897Z,8.77
2018-12-20T14:20:08.459Z,9.33
2018-12-20T14:22:35.918Z,10.93
2018-12-20T14:25:04.037Z,6.33
2018-12-20T14:27:31.497Z,5.70
2018-12-20T14:29:58.944Z,7.73
2018-12-20T14:32:26.453Z,18.13
2018-12-20T14:34:54.523Z,8.33
2018-12-20T14:37:22.227Z,6.97
2018-12-20T14:39:49.645Z,9.70
2018-12-20T14:42:17.118Z,9.23
2018-12-20T14:44:44.613Z,10.80
2018-12-20T14:47:12.112Z,9.77
2018-12-20T14:49:39.574Z,14.10
2018-12-20T14:52:07.395Z,30.40
2018-12-20T14:57:08.782Z,21.10
2018-12-20T14:59:36.227Z,16.97
2018-12-20T15:02:03.701Z,16.83
2018-12-20T15:04:31.177Z,12.93
2018-12-20T15:06:58.639Z,12.33
2018-12-20T15:09:26.195Z,11.13
2018-12-20T15:11:53.656Z,10.33
2018-12-20T15:14:21.149Z,9.70
2018-12-20T15:16:48.611Z,10.37
2018-12-20T15:19:16.083Z,12.43
2018-12-20T15:21:43.569Z,9.77
2018-12-20T15:24:11.026Z,8.53
2018-12-20T15:26:38.827Z,6.40
2018-12-20T15:29:06.254Z,7.47
2018-12-20T15:31:33.754Z,7.77
2018-12-20T15:34:01.246Z,8.77
2018-12-20T15:36:28.719Z,9.33
2018-12-20T15:38:56.218Z,10.30
2018-12-20T15:41:23.683Z,9.30
2018-12-20T15:43:51.133Z,7.70
2018-12-20T15:46:18.661Z,6.80
2018-12-20T15:48:46.217Z,10.97
2018-12-20T15:51:13.628Z,6.40
2018-12-20T15:53:41.135Z,10.30
2018-12-20T15:56:08.610Z,8.33
2018-12-20T15:58:36.005Z,7.53
2018-12-20T16:01:03.471Z,7.10
2018-12-20T16:03:31.885Z,8.30
2018-12-20T16:05:59.382Z,9.77
2018-12-20T16:08:26.840Z,11.10
2018-12-20T16:10:54.370Z,7.50
2018-12-20T16:13:21.882Z,10.60
2018-12-20T16:15:49.336Z,9.90
2018-12-20T16:18:16.780Z,8.97
2018-12-20T16:20:44.299Z,10.23
2018-12-20T16:23:11.823Z,8.10
2018-12-20T16:25:39.341Z,7.17
2018-12-20T16:28:06.776Z,6.43
2018-12-20T16:30:34.269Z,5.07
2018-12-20T16:33:01.918Z,5.43
2018-12-20T16:35:29.330Z,4.37
2018-12-20T16:37:56.756Z,4.20
2018-12-20T16:40:24.287Z,4.00
2018-12-20T16:42:51.765Z,3.50
2018-12-20T16:45:19.736Z,4.03
2018-12-20T16:47:47.224Z,3.20
2018-12-20T16:50:14.631Z,3.13
2018-12-20T16:52:42.080Z,2.90
2018-12-20T16:55:09.656Z,2.90
2018-12-20T16:57:37.108Z,3.17
2018-12-20T17:00:08.298Z,2.20
2018-12-20T17:02:35.821Z,2.37
2018-12-20T17:05:03.683Z,2.50
2018-12-20T17:07:31.120Z,2.97
2018-12-20T17:09:58.757Z,2.63
2018-12-20T17:12:26.231Z,2.77
2018-12-20T17:14:53.683Z,3.47
2018-12-20T17:17:21.170Z,3.40
2018-12-20T17:19:48.672Z,3.33
2018-12-20T17:22:16.188Z,3.30
2018-12-20T17:24:44.439Z,3.20
2018-12-20T17:27:12.243Z,3.23
2018-12-20T17:29:40.749Z,3.60
2018-12-20T17:32:08.419Z,3.20
2018-12-20T17:34:35.909Z,3.43
2018-12-20T17:37:03.739Z,4.27
2018-12-20T17:39:31.217Z,3.90
2018-12-20T17:41:58.765Z,4.40
2018-12-20T17:44:26.202Z,4.07
2018-12-20T17:46:53.671Z,4.20
2018-12-20T17:49:21.142Z,3.40
2018-12-20T17:51:48.564Z,3.63
2018-12-20T17:54:16.081Z,4.17
2018-12-20T17:56:43.571Z,3.80
2018-12-20T17:59:11.060Z,4.00
2018-12-20T18:01:40.238Z,4.37
2018-12-20T18:04:07.929Z,3.57
2018-12-20T18:06:35.373Z,4.37
2018-12-20T18:09:04.673Z,3.70
2018-12-20T18:11:32.165Z,4.20
2018-12-20T18:13:59.616Z,4.40
2018-12-20T18:16:28.601Z,3.93
2018-12-20T18:18:56.065Z,4.93
2018-12-20T18:21:23.542Z,5.67
2018-12-20T18:23:51.036Z,5.50
2018-12-20T18:26:18.485Z,5.73
2018-12-20T18:28:47.349Z,6.93
2018-12-20T18:31:15.305Z,6.60
2018-12-20T18:33:42.779Z,7.60
2018-12-20T18:36:10.245Z,8.33
2018-12-20T18:38:37.709Z,7.13
2018-12-20T18:41:05.231Z,10.13
2018-12-20T18:43:32.698Z,7.47
2018-12-20T18:46:00.248Z,8.43
2018-12-20T18:48:27.744Z,10.07
2018-12-20T18:50:55.250Z,9.90
2018-12-20T18:53:22.744Z,9.83
2018-12-20T18:55:50.318Z,8.60
2018-12-20T18:58:17.765Z,6.50
2018-12-20T19:00:45.233Z,13.53
2018-12-20T19:03:12.725Z,7.37
2018-12-20T19:05:40.166Z,9.30
2018-12-20T19:08:07.647Z,7.77
2018-12-20T19:10:35.789Z,5.97
2018-12-20T19:13:03.285Z,5.23
2018-12-20T19:15:30.831Z,6.10
2018-12-20T19:17:58.291Z,4.90
2018-12-20T19:20:25.748Z,4.83
2018-12-20T19:22:53.248Z,4.10
2018-12-20T19:25:20.996Z,4.20
2018-12-20T19:27:48.492Z,4.17
2018-12-20T19:30:15.956Z,5.20
2018-12-20T19:32:43.441Z,7.67
2018-12-20T19:35:10.877Z,4.70
2018-12-20T19:37:38.365Z,5.10
2018-12-20T19:40:08.280Z,4.57
2018-12-20T19:42:35.801Z,4.20
2018-12-20T19:45:03.987Z,4.30
2018-12-20T19:47:31.462Z,4.40
2018-12-20T19:50:04.847Z,4.60
2018-12-20T19:52:28.486Z,4.30
2018-12-20T19:54:55.946Z,4.67
2018-12-20T19:57:23.423Z,4.80
2018-12-20T19:59:50.913Z,4.37
2018-12-20T20:02:18.322Z,4.10
2018-12-20T20:04:45.769Z,4.73
2018-12-20T20:07:13.321Z,4.27
2018-12-20T20:09:40.736Z,4.40
2018-12-20T20:12:08.249Z,3.67
2018-12-20T20:14:35.730Z,4.43
2018-12-20T20:17:03.308Z,4.00
2018-12-20T20:19:30.839Z,5.10
2018-12-20T20:21:58.343Z,4.07
2018-12-20T20:24:25.786Z,3.50
2018-12-20T20:26:53.220Z,4.10
2018-12-20T20:29:20.784Z,5.53
2018-12-20T20:31:48.267Z,3.97
2018-12-20T20:34:15.729Z,4.17
2018-12-20T20:36:44.088Z,3.33
2018-12-20T20:39:11.565Z,2.10
2018-12-20T20:41:39.045Z,1.73
2018-12-20T20:44:06.548Z,1.53
2018-12-20T20:46:34.074Z,3.17
2018-12-20T20:49:01.617Z,2.17
2018-12-20T20:51:29.082Z,1.77
2018-12-20T20:53:56.518Z,1.90
2018-12-20T20:56:23.999Z,2.20
2018-12-20T20:58:51.518Z,2.87
2018-12-20T21:01:18.980Z,4.43
2018-12-20T21:03:46.430Z,3.27
2018-12-20T21:06:13.955Z,3.80
2018-12-20T21:08:41.427Z,4.77
2018-12-20T21:11:08.891Z,4.90
2018-12-20T21:13:36.581Z,4.70
2018-12-20T21:16:04.136Z,3.83
2018-12-20T21:18:31.544Z,4.23
2018-12-20T21:20:59.224Z,5.00
2018-12-20T21:23:26.888Z,4.10
2018-12-20T21:25:54.352Z,4.03
2018-12-20T21:28:21.858Z,3.27
2018-12-20T21:30:49.354Z,3.60
2018-12-20T21:33:16.792Z,4.33
2018-12-20T21:35:44.269Z,4.10
2018-12-20T21:38:13.628Z,4.23
2018-12-20T21:40:41.214Z,7.87
2018-12-20T21:43:08.795Z,4.73
2018-12-20T21:45:36.225Z,4.83
2018-12-20T21:48:03.781Z,7.60
2018-12-20T21:50:38.798Z,5.17
2018-12-20T21:53:00.794Z,5.17
2018-12-20T21:55:28.272Z,3.50
2018-12-20T21:57:55.713Z,3.70
2018-12-20T22:00:23.210Z,3.73
2018-12-20T22:02:50.713Z,5.50
2018-12-20T22:05:18.441Z,3.17
2018-12-20T22:07:46.041Z,3.30
2018-12-20T22:10:13.528Z,3.10
2018-12-20T22:12:41.042Z,3.07
2018-12-20T22:15:08.512Z,4.27
2018-12-20T22:17:36.030Z,3.30
2018-12-20T22:20:04.243Z,5.07
2018-12-20T22:22:31.751Z,3.80
2018-12-20T22:24:59.233Z,4.10
2018-12-20T22:27:26.788Z,3.90
2018-12-20T22:29:54.277Z,4.53
2018-12-20T22:32:21.808Z,4.50
2018-12-20T22:34:49.320Z,4.23
2018-12-20T22:37:16.751Z,4.10
2018-12-20T22:39:44.200Z,4.83
2018-12-20T22:42:11.682Z,3.60
2018-12-20T22:44:39.118Z,3.40
2018-12-20T22:47:06.550Z,3.53
2018-12-20T22:49:34.017Z,4.30
2018-12-20T22:52:01.539Z,4.43
2018-12-20T22:54:29.028Z,7.97
2018-12-20T22:56:56.527Z,5.63
2018-12-20T22:59:23.964Z,5.60
2018-12-20T23:01:51.522Z,4.30
2018-12-20T23:04:19.058Z,3.40
2018-12-20T23:06:46.519Z,3.90
2018-12-20T23:09:13.980Z,4.90
2018-12-20T23:11:41.483Z,4.40
2018-12-20T23:14:08.940Z,4.40
2018-12-20T23:16:36.391Z,4.40
2018-12-20T23:19:03.955Z,4.00
2018-12-20T23:21:31.410Z,3.97
2018-12-20T23:23:59.656Z,4.07
2018-12-20T23:26:27.107Z,5.17
2018-12-20T23:28:54.561Z,13.60
2018-12-20T23:31:21.980Z,12.57
2018-12-20T23:33:49.562Z,9.67
2018-12-20T23:36:16.964Z,6.00
2018-12-20T23:38:44.480Z,5.17
2018-12-20T23:41:12.013Z,5.53
2018-12-20T23:43:39.545Z,5.30
2018-12-20T23:46:07.018Z,5.20
2018-12-20T23:48:34.525Z,5.43
2018-12-20T23:51:02.996Z,5.87
2018-12-20T23:53:30.431Z,5.07
2018-12-20T23:55:58.243Z,5.40
2018-12-20T23:58:25.702Z,6.30
